Time;durP1;ratioP1;P1;durP2;ratioP2;P2;SDS_P1;SDS_P2;PMS_P1;PMS_P2;Temp;Humidity;BMP_temperature;BMP_pressure;BME280_temperature;BME280_humidity;BME280_pressure;Samples;Min_cycle;Max_cycle;Signal;HPM_P1;HPM_P2
2022/10/13 00:00:50;;;;;;;28.38;11.10;;;;;;;5.65;100.00;101081.70;1710100;83;21040;-65
2022/10/13 00:03:16;;;;;;;23.30;9.08;;;;;;;5.77;100.00;101077.33;1700388;84;21518;-65
2022/10/13 00:05:46;;;;;;;26.48;9.58;;;;;;;5.80;100.00;101082.13;1709907;83;21612;-65
2022/10/13 00:08:20;;;;;;;23.67;9.75;;;;;;;5.84;100.00;101082.97;1681113;85;23106;-66
2022/10/13 00:10:49;;;;;;;30.10;10.60;;;;;;;5.85;100.00;101078.19;1700438;84;21069;-64
2022/10/13 00:13:18;;;;;;;21.87;9.13;;;;;;;5.88;100.00;101079.48;1709727;83;21079;-65
2022/10/13 00:15:45;;;;;;;19.02;8.53;;;;;;;5.91;100.00;101083.38;1700140;84;21133;-64
2022/10/13 00:18:14;;;;;;;24.00;9.33;;;;;;;5.91;100.00;101075.53;1709395;83;21046;-65
2022/10/13 00:20:46;;;;;;;25.00;9.85;;;;;;;5.97;100.00;101074.26;1681228;85;21029;-64
2022/10/13 00:23:13;;;;;;;21.82;9.43;;;;;;;5.99;100.00;101075.57;1699821;84;21084;-64
2022/10/13 00:25:43;;;;;;;23.47;9.78;;;;;;;6.01;100.00;101079.92;1709844;83;21116;-65
2022/10/13 00:28:09;;;;;;;21.60;8.80;;;;;;;6.04;100.00;101077.28;1699615;84;21300;-66
2022/10/13 00:30:38;;;;;;;15.75;7.70;;;;;;;6.05;100.00;101082.96;1709425;83;21295;-64
2022/10/13 00:33:05;;;;;;;22.00;9.10;;;;;;;6.10;100.00;101081.64;1699877;84;21117;-65
2022/10/13 00:35:33;;;;;;;22.17;8.28;;;;;;;6.14;100.00;101077.25;1709627;83;21074;-66
2022/10/13 00:38:00;;;;;;;25.05;9.03;;;;;;;6.18;100.00;101074.62;1699927;84;21110;-66
2022/10/13 00:40:28;;;;;;;24.95;9.90;;;;;;;6.22;100.00;101075.48;1709588;83;21158;-64
2022/10/13 00:42:55;;;;;;;17.55;9.03;;;;;;;6.24;100.00;101074.60;1699697;84;21084;-65
2022/10/13 00:45:28;;;;;;;28.12;9.53;;;;;;;6.25;100.00;101072.85;1692080;83;21049;-65
2022/10/13 00:47:58;;;;;;;18.37;8.15;;;;;;;6.27;100.00;101074.58;1671770;85;21170;-65
2022/10/13 00:50:32;;;;;;;19.77;8.93;;;;;;;6.29;100.00;101075.89;1652196;86;21101;-64
2022/10/13 00:53:01;;;;;;;23.92;8.80;;;;;;;6.31;100.00;101067.60;1651903;86;21112;-64
2022/10/13 00:55:33;;;;;;;19.55;9.35;;;;;;;6.32;100.00;101071.08;1656663;86;21039;-64
2022/10/13 00:58:01;;;;;;;20.37;8.60;;;;;;;6.32;100.00;101068.47;1660053;86;21060;-64
2022/10/13 01:00:31;;;;;;;21.37;8.75;;;;;;;6.32;100.00;101074.56;1674572;85;21072;-65
2022/10/13 01:02:58;;;;;;;15.38;7.62;;;;;;;6.32;100.00;101073.25;1671992;85;21125;-64
2022/10/13 01:05:25;;;;;;;23.07;9.38;;;;;;;6.34;100.00;101072.81;1671839;85;21271;-64
2022/10/13 01:07:54;;;;;;;24.77;8.88;;;;;;;6.35;100.00;101073.67;1671685;85;21080;-65
2022/10/13 01:10:46;;;;;;;39.10;9.65;;;;;;;6.38;100.00;101073.68;1672039;85;21068;-65
2022/10/13 01:13:41;;;;;;;28.32;9.90;;;;;;;6.40;100.00;101068.87;1670913;85;21083;-65
2022/10/13 01:16:55;;;;;;;23.07;8.95;;;;;;;6.42;100.00;101067.11;1672069;85;21059;-66
2022/10/13 01:19:45;;;;;;;20.40;8.63;;;;;;;6.43;100.00;101067.53;1671805;85;21266;-65
2022/10/13 01:22:47;;;;;;;24.25;9.05;;;;;;;6.46;100.00;101062.27;1671643;85;21063;-65
2022/10/13 01:25:58;;;;;;;20.62;8.68;;;;;;;6.45;100.00;101057.93;1672003;85;21096;-64
2022/10/13 01:28:56;;;;;;;12.93;6.03;;;;;;;6.48;100.00;101060.52;1671927;85;21119;-64
2022/10/13 01:31:43;;;;;;;16.65;7.95;;;;;;;6.55;100.00;101060.50;1671899;85;21124;-64
2022/10/13 01:34:44;;;;;;;25.90;9.73;;;;;;;6.60;100.00;101052.17;1671827;85;21347;-64
2022/10/13 01:37:35;;;;;;;28.45;10.58;;;;;;;6.64;100.00;101055.21;1671901;85;21080;-65
2022/10/13 01:40:30;;;;;;;15.13;7.13;;;;;;;6.62;100.00;101059.58;1668018;85;21040;-65
2022/10/13 01:43:09;;;;;;;21.35;8.53;;;;;;;6.62;100.00;101051.28;1671778;85;21634;-64
2022/10/13 01:45:53;;;;;;;18.42;7.83;;;;;;;6.67;100.00;101046.02;1672080;85;21116;-65
2022/10/13 01:48:21;;;;;;;19.17;8.45;;;;;;;6.73;100.00;101045.98;1671899;85;21206;-65
2022/10/13 01:50:50;;;;;;;16.93;8.30;;;;;;;6.79;100.00;101047.27;1671700;85;21087;-64
2022/10/13 01:53:16;;;;;;;19.80;8.20;;;;;;;6.79;100.00;101049.89;1671802;85;21143;-65
2022/10/13 01:55:57;;;;;;;24.63;8.95;;;;;;;6.81;100.00;101049.86;1665832;85;21045;-64
2022/10/13 01:58:27;;;;;;;15.60;7.70;;;;;;;6.80;100.00;101048.13;1657551;86;21068;-66
2022/10/13 02:01:09;;;;;;;25.80;8.53;;;;;;;6.79;100.00;101047.27;1715544;82;21230;-64
2022/10/13 02:04:15;;;;;;;19.82;9.33;;;;;;;6.79;100.00;101049.89;1721743;82;21465;-65
2022/10/13 02:06:52;;;;;;;24.57;9.00;;;;;;;6.79;100.00;101055.13;1734321;82;21046;-66
2022/10/13 02:09:42;;;;;;;22.75;8.30;;;;;;;6.82;100.00;101059.02;1734223;82;21007;-66
2022/10/13 02:12:21;;;;;;;23.85;8.40;;;;;;;6.83;100.00;101054.23;1734154;82;21088;-64
2022/10/13 02:14:49;;;;;;;26.73;8.35;;;;;;;6.86;100.00;101060.75;1734435;82;21759;-65
2022/10/13 02:17:16;;;;;;;18.60;8.28;;;;;;;6.83;100.00;101061.19;1734097;82;21558;-64
2022/10/13 02:19:44;;;;;;;19.20;7.72;;;;;;;6.82;100.00;101067.32;1734249;82;21053;-65
2022/10/13 02:22:13;;;;;;;23.18;8.08;;;;;;;6.81;100.00;101061.22;1734214;82;21078;-64
2022/10/13 02:24:39;;;;;;;20.37;7.92;;;;;;;6.81;100.00;101061.22;1734470;82;21093;-65
2022/10/13 02:27:09;;;;;;;19.67;9.33;;;;;;;6.82;100.00;101070.80;1734165;82;21050;-65
2022/10/13 02:29:55;;;;;;;22.13;8.35;;;;;;;6.81;100.00;101065.15;1733923;82;21022;-65
2022/10/13 02:32:24;;;;;;;30.88;9.28;;;;;;;6.84;100.00;101066.42;1734201;82;21046;-65
2022/10/13 02:34:53;;;;;;;19.57;9.20;;;;;;;6.96;100.00;101063.30;1734144;82;21010;-67
2022/10/13 02:37:19;;;;;;;25.95;9.93;;;;;;;6.92;100.00;101067.26;1734231;82;21038;-66
2022/10/13 02:39:46;;;;;;;28.87;9.58;;;;;;;6.88;100.00;101064.22;1734216;82;21238;-66
2022/10/13 02:42:14;;;;;;;32.40;11.45;;;;;;;6.85;100.00;101060.30;1734147;82;21031;-65
2022/10/13 02:44:41;;;;;;;36.85;10.55;;;;;;;6.85;100.00;101061.60;1724520;82;21108;-65
2022/10/13 02:47:07;;;;;;;28.60;10.70;;;;;;;6.84;100.00;101066.88;1705129;84;21061;-66
2022/10/13 02:49:34;;;;;;;25.27;10.63;;;;;;;6.82;100.00;101062.95;1704894;84;21072;-65
2022/10/13 02:52:01;;;;;;;24.25;10.53;;;;;;;6.80;100.00;101062.08;1704809;84;21264;-65
2022/10/13 02:54:28;;;;;;;24.67;10.15;;;;;;;6.83;100.00;101062.08;1704995;84;21010;-64
2022/10/13 02:56:55;;;;;;;26.75;11.30;;;;;;;6.81;100.00;101062.53;1710769;83;21148;-65
2022/10/13 02:59:22;;;;;;;23.40;9.98;;;;;;;6.85;100.00;101062.91;1712662;83;21058;-66
2022/10/13 03:01:48;;;;;;;24.55;10.58;;;;;;;6.84;100.00;101056.41;1734952;82;21015;-65
2022/10/13 03:04:15;;;;;;;34.20;12.10;;;;;;;6.87;100.00;101060.30;1741431;82;21220;-65
2022/10/13 03:06:42;;;;;;;27.45;10.95;;;;;;;6.90;100.00;101066.40;1742269;82;21113;-65
2022/10/13 03:09:10;;;;;;;25.08;10.50;;;;;;;6.90;100.00;101063.78;1742440;82;21498;-64
2022/10/13 03:11:39;;;;;;;22.20;10.23;;;;;;;6.90;100.00;101062.47;1742795;82;21054;-64
2022/10/13 03:14:06;;;;;;;32.45;11.38;;;;;;;6.90;100.00;101055.03;1742111;82;21101;-65
2022/10/13 03:16:32;;;;;;;25.62;10.60;;;;;;;6.89;100.00;101054.16;1742327;82;21516;-66
2022/10/13 03:19:00;;;;;;;28.83;11.05;;;;;;;6.88;100.00;101056.38;1742174;82;21026;-65
2022/10/13 03:21:27;;;;;;;29.92;11.05;;;;;;;6.91;100.00;101057.64;1742431;82;21045;-64
2022/10/13 03:23:53;;;;;;;25.23;10.35;;;;;;;6.92;100.00;101059.41;1742320;82;21053;-63
2022/10/13 03:26:20;;;;;;;28.23;11.25;;;;;;;6.96;100.00;101054.13;1742505;82;21026;-65
2022/10/13 03:28:51;;;;;;;27.80;11.18;;;;;;;6.97;100.00;101062.41;1742168;82;23182;-65
2022/10/13 03:31:17;;;;;;;24.47;10.28;;;;;;;6.99;100.00;101060.64;1742675;82;21073;-64
2022/10/13 03:33:44;;;;;;;39.03;11.35;;;;;;;6.97;100.00;101060.68;1742018;82;21557;-64
2022/10/13 03:36:12;;;;;;;31.62;10.32;;;;;;;6.98;100.00;101061.54;1742225;82;22225;-65
2022/10/13 03:38:39;;;;;;;29.32;10.70;;;;;;;6.94;100.00;101065.47;1742341;82;21025;-64
2022/10/13 03:41:13;;;;;;;34.03;12.10;;;;;;;6.94;100.00;101065.47;1742240;82;21542;-65
2022/10/13 03:43:40;;;;;;;27.90;9.98;;;;;;;6.93;100.00;101062.44;1742212;82;21033;-65
2022/10/13 03:46:07;;;;;;;23.12;8.98;;;;;;;6.92;100.00;101065.95;1742330;82;21507;-65
2022/10/13 03:48:34;;;;;;;25.27;10.80;;;;;;;6.94;100.00;101066.78;1742362;82;21029;-66
2022/10/13 03:51:10;;;;;;;24.43;10.05;;;;;;;6.96;100.00;101065.47;1742392;82;21112;-64
2022/10/13 03:53:39;;;;;;;25.45;10.75;;;;;;;6.96;100.00;101069.84;1742391;82;21221;-64
2022/10/13 03:56:06;;;;;;;23.30;10.43;;;;;;;6.95;100.00;101063.74;1743954;82;21061;-64
2022/10/13 03:58:35;;;;;;;25.43;10.80;;;;;;;6.94;100.00;101067.23;1747856;82;21017;-65
2022/10/13 04:01:04;;;;;;;27.73;11.57;;;;;;;6.93;100.00;101067.67;1748161;82;21074;-63
2022/10/13 04:03:32;;;;;;;31.00;11.90;;;;;;;6.96;100.00;101073.77;1748351;82;21533;-64
2022/10/13 04:06:02;;;;;;;20.90;10.93;;;;;;;6.98;100.00;101065.47;1748522;81;21791;-64
2022/10/13 04:08:30;;;;;;;29.72;11.55;;;;;;;6.99;100.00;101072.43;1748493;82;20995;-64
2022/10/13 04:11:06;;;;;;;25.50;10.55;;;;;;;7.02;100.00;101075.05;1748626;82;21010;-66
2022/10/13 04:13:33;;;;;;;19.45;9.48;;;;;;;7.01;100.00;101071.53;1748211;81;21045;-64
2022/10/13 04:16:06;;;;;;;19.30;9.53;;;;;;;7.02;100.00;101072.43;1748274;82;21076;-65
2022/10/13 04:18:33;;;;;;;19.02;8.50;;;;;;;7.02;100.00;101077.22;1746990;82;21144;-65
2022/10/13 04:21:00;;;;;;;18.10;8.95;;;;;;;7.03;100.00;101075.02;1748108;81;21037;-65
2022/10/13 04:23:26;;;;;;;36.00;9.93;;;;;;;7.05;100.00;101077.19;1748248;81;21034;-66
2022/10/13 04:25:53;;;;;;;19.60;8.28;;;;;;;7.08;100.00;101081.53;1748608;81;21010;-65
2022/10/13 04:28:20;;;;;;;26.65;8.13;;;;;;;7.09;100.00;101081.98;1748361;81;21042;-65
2022/10/13 04:30:47;;;;;;;22.27;7.92;;;;;;;7.10;100.00;101078.47;1748277;82;21138;-65
2022/10/13 04:33:14;;;;;;;19.30;7.78;;;;;;;7.06;100.00;101075.02;1748322;81;21120;-65
2022/10/13 04:35:41;;;;;;;22.37;8.18;;;;;;;7.03;100.00;101081.56;1748258;82;21025;-66
2022/10/13 04:38:07;;;;;;;29.32;9.58;;;;;;;7.07;100.00;101078.50;1748208;82;21037;-64
2022/10/13 04:40:34;;;;;;;24.60;9.83;;;;;;;7.04;100.00;101081.12;1748323;82;21039;-65
2022/10/13 04:43:01;;;;;;;24.77;10.08;;;;;;;7.09;100.00;101078.05;1748474;82;21200;-66
2022/10/13 04:45:28;;;;;;;30.65;10.13;;;;;;;7.14;100.00;101077.12;1748197;81;21161;-66
2022/10/13 04:47:54;;;;;;;20.82;9.78;;;;;;;7.17;100.00;101076.22;1748129;82;21081;-66
2022/10/13 04:50:21;;;;;;;28.87;9.80;;;;;;;7.13;100.00;101078.42;1748121;82;21004;-65
2022/10/13 04:52:50;;;;;;;21.62;8.98;;;;;;;7.15;100.00;101077.98;1719608;82;21057;-65
2022/10/13 04:55:17;;;;;;;26.82;9.90;;;;;;;7.11;100.00;101082.84;1748249;81;21567;-65
2022/10/13 04:57:44;;;;;;;31.50;10.32;;;;;;;7.11;100.00;101081.08;1747998;81;21053;-66
2022/10/13 05:00:13;;;;;;;22.87;10.23;;;;;;;7.13;100.00;101082.36;1748330;82;21022;-66
2022/10/13 05:02:40;;;;;;;28.30;10.10;;;;;;;7.13;100.00;101078.42;1748292;81;21525;-65
2022/10/13 05:05:09;;;;;;;23.70;10.00;;;;;;;7.19;100.00;101079.70;1748223;81;21073;-65
2022/10/13 05:07:36;;;;;;;19.98;9.38;;;;;;;7.20;100.00;101074.02;1748276;81;21207;-65
2022/10/13 05:10:04;;;;;;;21.60;9.30;;;;;;;7.27;100.00;101089.69;1748159;82;21014;-66
2022/10/13 05:12:30;;;;;;;17.57;8.45;;;;;;;7.28;100.00;101088.80;1748118;81;21069;-64
2022/10/13 05:14:59;;;;;;;29.80;9.40;;;;;;;7.32;100.00;101087.90;1748026;81;21025;-65
2022/10/13 05:17:25;;;;;;;25.48;9.75;;;;;;;7.35;100.00;101085.23;1748263;82;21017;-65
2022/10/13 05:19:53;;;;;;;20.62;8.35;;;;;;;7.33;100.00;101097.48;1747937;81;21129;-65
2022/10/13 05:22:20;;;;;;;33.25;9.30;;;;;;;7.34;100.00;101094.45;1748178;82;21014;-65
2022/10/13 05:24:47;;;;;;;21.37;8.73;;;;;;;7.36;100.00;101100.52;1748362;82;21029;-65
2022/10/13 05:27:13;;;;;;;26.85;9.85;;;;;;;7.40;100.00;101106.16;1748276;81;21053;-66
2022/10/13 05:29:43;;;;;;;28.73;9.35;;;;;;;7.44;100.00;101105.27;1748270;82;21053;-64
2022/10/13 05:32:09;;;;;;;24.70;8.80;;;;;;;7.50;100.00;101105.64;1748541;81;21759;-66
2022/10/13 05:34:36;;;;;;;31.48;9.78;;;;;;;7.53;100.00;101106.94;1748112;82;21624;-65
2022/10/13 05:37:03;;;;;;;28.12;10.32;;;;;;;7.55;100.00;101101.25;1748272;81;21522;-65
2022/10/13 05:39:32;;;;;;;20.82;9.93;;;;;;;7.59;100.00;101105.55;1748122;81;21061;-65
2022/10/13 05:41:59;;;;;;;22.93;9.78;;;;;;;7.62;100.00;101106.86;1748174;81;20998;-66
2022/10/13 05:44:26;;;;;;;29.25;9.50;;;;;;;7.64;100.00;101110.34;1748029;82;21273;-66
2022/10/13 05:46:56;;;;;;;33.63;11.15;;;;;;;7.69;100.00;101107.22;1748150;82;21128;-66
2022/10/13 05:49:23;;;;;;;26.17;10.05;;;;;;;7.73;100.00;101110.25;1748133;82;21042;-66
2022/10/13 05:51:54;;;;;;;33.18;10.13;;;;;;;7.78;100.00;101108.45;1748229;82;21093;-65
2022/10/13 05:54:29;;;;;;;22.55;9.98;;;;;;;7.81;100.00;101114.10;1748537;82;21616;-66
2022/10/13 05:57:00;;;;;;;27.20;10.08;;;;;;;7.87;100.00;101117.12;1747780;81;21050;-65
2022/10/13 05:59:31;;;;;;;25.80;9.70;;;;;;;8.00;100.00;101118.70;1748037;82;20978;-65
2022/10/13 06:01:58;;;;;;;28.07;10.68;;;;;;;8.07;100.00;101119.52;1720606;82;21625;-66
2022/10/13 06:04:39;;;;;;;27.87;10.00;;;;;;;8.13;100.00;101115.07;1748022;81;21052;-66
2022/10/13 06:07:05;;;;;;;28.57;10.32;;;;;;;8.19;100.00;101122.02;1748526;82;21093;-65
2022/10/13 06:09:34;;;;;;;25.15;9.58;;;;;;;8.30;100.00;101127.12;1721041;82;21231;-66
2022/10/13 06:12:01;;;;;;;42.90;10.88;;;;;;;8.38;100.00;101121.36;1748187;82;21025;-67
2022/10/13 06:14:29;;;;;;;22.67;9.53;;;;;;;8.50;100.00;101118.60;1748144;81;21037;-66
2022/10/13 06:16:56;;;;;;;29.42;10.08;;;;;;;8.59;100.00;101126.36;1747891;81;21049;-66
2022/10/13 06:19:24;;;;;;;37.15;10.80;;;;;;;8.69;100.00;101122.30;1748078;82;21091;-66
2022/10/13 06:21:50;;;;;;;26.52;9.48;;;;;;;8.79;100.00;101117.36;1747932;82;21760;-64
2022/10/13 06:24:16;;;;;;;22.00;10.20;;;;;;;8.90;100.00;101123.76;1747908;81;21014;-66
2022/10/13 06:26:43;;;;;;;24.27;9.30;;;;;;;8.99;100.00;101119.23;1747991;82;21049;-66
2022/10/13 06:29:09;;;;;;;24.27;9.43;;;;;;;9.08;100.00;101117.38;1748033;82;21073;-65
2022/10/13 06:31:37;;;;;;;24.12;9.70;;;;;;;9.15;100.00;101125.13;1748083;81;21081;-66
2022/10/13 06:34:04;;;;;;;19.05;8.25;;;;;;;9.26;100.00;101123.66;1748199;82;21842;-66
2022/10/13 06:36:33;;;;;;;21.95;9.53;;;;;;;9.33;100.00;101116.09;1748080;82;21088;-65
2022/10/13 06:39:00;;;;;;;18.62;8.20;;;;;;;9.44;100.00;101117.24;1747884;82;21596;-65
2022/10/13 06:41:27;;;;;;;30.23;9.98;;;;;;;9.50;100.00;101118.47;1748177;81;21501;-65
2022/10/13 06:43:54;;;;;;;30.52;8.13;;;;;;;9.57;100.00;101120.52;1747926;82;21542;-64
2022/10/13 06:46:21;;;;;;;17.95;8.93;;;;;;;9.65;100.00;101123.44;1718310;83;21743;-65
2022/10/13 06:48:49;;;;;;;21.57;8.83;;;;;;;9.66;100.00;101116.41;1718121;83;21025;-66
2022/10/13 06:51:18;;;;;;;19.07;7.87;;;;;;;9.79;100.00;101124.52;1718428;83;21017;-66
2022/10/13 06:53:45;;;;;;;29.72;8.83;;;;;;;9.85;100.00;101127.50;1718178;83;21053;-67
2022/10/13 06:56:13;;;;;;;17.32;8.05;;;;;;;9.92;100.00;101126.49;1718086;83;21049;-68
2022/10/13 06:58:40;;;;;;;23.60;8.58;;;;;;;9.98;100.00;101130.76;1718119;83;21148;-66
2022/10/13 07:01:06;;;;;;;30.35;9.73;;;;;;;10.02;100.00;101129.81;1718261;83;21553;-66
2022/10/13 07:03:33;;;;;;;21.15;8.33;;;;;;;10.11;100.00;101132.27;1718153;83;21069;-67
2022/10/13 07:06:02;;;;;;;19.57;8.28;;;;;;;10.20;100.00;101128.14;1718392;83;21068;-66
2022/10/13 07:08:30;;;;;;;20.40;8.30;;;;;;;10.28;100.00;101128.91;1718280;83;21025;-66
2022/10/13 07:10:57;;;;;;;30.40;8.83;;;;;;;10.36;100.00;101134.47;1718470;83;21787;-66
2022/10/13 07:13:24;;;;;;;23.22;8.88;;;;;;;10.43;100.00;101129.03;1718074;83;21041;-66
2022/10/13 07:15:52;;;;;;;47.30;10.98;;;;;;;10.51;100.00;101128.86;1718101;83;21053;-66
2022/10/13 07:18:19;;;;;;;20.88;8.20;;;;;;;10.57;100.00;101126.11;1718438;83;21045;-66
2022/10/13 07:20:46;;;;;;;25.17;9.55;;;;;;;10.66;100.00;101125.91;1718534;83;21112;-65
2022/10/13 07:23:12;;;;;;;19.42;7.83;;;;;;;10.69;100.00;101121.89;1718633;83;21257;-66
2022/10/13 07:25:39;;;;;;;22.40;8.45;;;;;;;10.71;100.00;101130.62;1718268;83;21087;-68
2022/10/13 07:28:08;;;;;;;31.17;8.90;;;;;;;10.74;100.00;101124.87;1718707;83;21129;-65
2022/10/13 07:30:40;;;;;;;19.30;7.85;;;;;;;10.82;100.00;101128.22;1718234;83;21049;-67
2022/10/13 07:33:07;;;;;;;21.15;7.80;;;;;;;10.93;100.00;101128.86;1718452;83;21488;-66
2022/10/13 07:35:38;;;;;;;20.52;8.60;;;;;;;11.02;100.00;101119.84;1718533;83;21903;-66
2022/10/13 07:38:07;;;;;;;17.90;7.80;;;;;;;11.13;100.00;101124.42;1691661;83;21516;-66
2022/10/13 07:40:34;;;;;;;16.55;7.70;;;;;;;11.24;100.00;101130.77;1718210;83;21029;-66
2022/10/13 07:43:01;;;;;;;21.05;7.60;;;;;;;11.34;100.00;101123.04;1718288;83;21559;-66
2022/10/13 07:45:28;;;;;;;34.67;8.95;;;;;;;11.47;100.00;101117.88;1718274;83;21596;-66
2022/10/13 07:47:56;;;;;;;18.98;8.38;;;;;;;11.61;100.00;101119.31;1718291;83;21929;-67
2022/10/13 07:50:22;;;;;;;27.93;9.90;;;;;;;11.74;100.00;101119.42;1718426;83;21572;-66
2022/10/13 07:52:51;;;;;;;24.30;9.93;;;;;;;11.89;100.00;101117.73;1718417;83;21463;-67
2022/10/13 07:55:18;;;;;;;20.82;8.98;;;;;;;12.02;100.00;101124.00;1718530;83;21077;-66
2022/10/13 07:57:46;;;;;;;21.85;7.72;;;;;;;12.12;100.00;101125.46;1713315;83;21065;-66
2022/10/13 08:00:13;;;;;;;23.32;7.87;;;;;;;12.19;100.00;101121.74;1704980;83;21200;-65
2022/10/13 08:02:41;;;;;;;26.07;7.20;;;;;;;12.24;100.00;101125.14;1704788;84;21030;-66
2022/10/13 08:05:08;;;;;;;20.80;7.30;;;;;;;12.37;100.00;101125.18;1705014;84;21124;-66
2022/10/13 08:07:38;;;;;;;14.55;7.08;;;;;;;12.50;100.00;101122.21;1698711;82;21599;-66
2022/10/13 08:10:06;;;;;;;18.10;7.67;;;;;;;12.59;100.00;101120.62;1689961;84;21079;-66
2022/10/13 08:12:35;;;;;;;19.70;7.40;;;;;;;12.64;100.00;101120.02;1690055;84;21572;-65
2022/10/13 08:15:06;;;;;;;18.10;7.78;;;;;;;12.73;100.00;101119.74;1689909;84;21075;-66
2022/10/13 08:17:33;;;;;;;16.02;7.22;;;;;;;12.83;100.00;101123.42;1689697;84;21032;-66
2022/10/13 08:19:59;;;;;;;18.00;7.70;;;;;;;12.84;100.00;101126.47;1689868;84;21052;-65
2022/10/13 08:22:28;;;;;;;18.35;7.28;;;;;;;12.79;100.00;101119.56;1689884;84;21118;-67
2022/10/13 08:24:55;;;;;;;19.82;8.35;;;;;;;12.83;100.00;101120.78;1689799;84;21327;-67
2022/10/13 08:27:26;;;;;;;22.27;7.25;;;;;;;12.81;100.00;101123.47;1690000;84;21059;-66
2022/10/13 08:29:53;;;;;;;20.05;7.35;;;;;;;12.82;100.00;101117.75;1689921;84;21067;-67
2022/10/13 08:32:21;;;;;;;19.70;7.90;;;;;;;12.95;100.00;101123.93;1689812;84;21051;-66
2022/10/13 08:34:49;;;;;;;18.82;7.67;;;;;;;12.96;100.00;101118.17;1690045;84;21060;-67
2022/10/13 08:37:17;;;;;;;19.02;7.08;;;;;;;12.95;100.00;101120.39;1690044;84;21278;-66
2022/10/13 08:39:45;;;;;;;19.65;7.80;;;;;;;12.95;100.00;101116.43;1689874;84;21043;-66
2022/10/13 08:42:17;;;;;;;15.18;7.10;;;;;;;12.92;100.00;101121.82;1690033;84;21580;-65
2022/10/13 08:44:54;;;;;;;14.65;7.40;;;;;;;12.94;100.00;101120.00;1704738;82;21061;-66
2022/10/13 08:47:46;;;;;;;15.48;6.95;;;;;;;12.97;100.00;101122.54;1734512;82;21018;-66
2022/10/13 08:50:19;;;;;;;19.12;8.33;;;;;;;13.01;99.84;101121.53;1734376;82;21093;-66
2022/10/13 08:53:08;;;;;;;18.98;8.55;;;;;;;12.96;99.76;101122.14;1734470;82;21125;-66
2022/10/13 08:55:40;;;;;;;22.05;8.00;;;;;;;12.86;100.00;101118.03;1734304;82;20999;-67
2022/10/13 08:58:30;;;;;;;13.43;6.08;;;;;;;12.90;100.00;101121.00;1739700;81;21617;-66
2022/10/13 09:01:14;;;;;;;20.85;7.03;;;;;;;12.98;100.00;101125.61;1748209;82;21384;-67
2022/10/13 09:03:53;;;;;;;14.68;6.33;;;;;;;13.06;100.00;101127.54;1748402;82;21253;-66
2022/10/13 09:06:32;;;;;;;13.90;6.03;;;;;;;13.05;100.00;101123.17;1748288;82;21085;-66
2022/10/13 09:09:03;;;;;;;16.70;6.60;;;;;;;13.12;100.00;101127.36;1748415;82;21086;-65
2022/10/13 09:11:38;;;;;;;16.90;5.40;;;;;;;13.18;99.83;101132.46;1748433;82;21010;-66
2022/10/13 09:14:10;;;;;;;21.60;5.83;;;;;;;13.22;98.86;101123.48;1748269;82;21604;-68
2022/10/13 09:16:42;;;;;;;13.18;5.28;;;;;;;13.27;97.79;101127.77;1747072;82;21144;-65
2022/10/13 09:19:34;;;;;;;18.20;5.03;;;;;;;13.34;97.23;101126.69;1748505;82;21029;-66
2022/10/13 09:22:30;;;;;;;16.00;5.42;;;;;;;13.39;97.06;101134.05;1748335;82;21104;-67
2022/10/13 09:25:11;;;;;;;15.75;5.25;;;;;;;13.40;96.86;101131.79;1720332;82;21013;-67
2022/10/13 09:27:53;;;;;;;17.95;5.83;;;;;;;13.43;96.00;101131.68;1748329;82;21002;-67
2022/10/13 09:30:40;;;;;;;15.65;5.85;;;;;;;13.44;95.51;101130.78;1748287;82;21174;-66
2022/10/13 09:33:14;;;;;;;24.12;5.70;;;;;;;13.48;95.64;101128.45;1747943;82;21037;-66
2022/10/13 09:35:46;;;;;;;16.37;5.50;;;;;;;13.42;94.31;101129.96;1748259;82;21632;-67
2022/10/13 09:38:15;;;;;;;11.63;4.83;;;;;;;13.40;94.12;101127.36;1748295;82;21029;-66
2022/10/13 09:40:43;;;;;;;11.90;5.35;;;;;;;13.39;94.17;101125.64;1748424;82;21042;-66
2022/10/13 09:43:32;;;;;;;14.33;5.47;;;;;;;13.41;94.25;101123.81;1748135;82;21273;-67
2022/10/13 09:46:01;;;;;;;14.40;4.92;;;;;;;13.45;94.92;101123.23;1722386;82;20998;-66
2022/10/13 09:48:34;;;;;;;12.47;4.83;;;;;;;13.46;94.60;101119.69;1715789;83;21022;-66
2022/10/13 09:51:01;;;;;;;18.57;4.70;;;;;;;13.46;94.21;101118.37;1718308;83;21045;-65
2022/10/13 09:53:36;;;;;;;14.23;4.70;;;;;;;13.48;94.27;101119.19;1718265;83;21116;-66
2022/10/13 09:56:20;;;;;;;12.63;4.90;;;;;;;13.55;93.84;101116.73;1718004;83;21208;-65
2022/10/13 09:59:06;;;;;;;13.08;5.50;;;;;;;13.56;94.09;101114.48;1718434;83;21023;-65
2022/10/13 10:01:36;;;;;;;15.60;5.58;;;;;;;13.57;94.19;101111.37;1718520;83;21069;-65
2022/10/13 10:04:10;;;;;;;13.98;5.62;;;;;;;13.56;94.84;101107.87;1718496;83;21052;-65
2022/10/13 10:06:37;;;;;;;16.27;4.72;;;;;;;13.58;94.68;101111.80;1717461;83;21084;-66
2022/10/13 10:09:26;;;;;;;17.07;5.30;;;;;;;13.64;94.20;101112.45;1718413;83;21146;-67
2022/10/13 10:11:54;;;;;;;22.95;6.28;;;;;;;13.69;93.90;101110.98;1718552;83;21089;-66
2022/10/13 10:14:33;;;;;;;13.88;4.87;;;;;;;13.74;93.15;101110.81;1718509;83;21029;-66
2022/10/13 10:17:26;;;;;;;19.07;6.30;;;;;;;13.76;92.87;101112.95;1718244;83;21052;-66
2022/10/13 10:20:51;;;;;;;17.10;5.55;;;;;;;13.73;92.49;101109.92;1718545;83;21541;-66
2022/10/13 10:23:27;;;;;;;12.47;4.42;;;;;;;13.73;93.09;101110.39;1692609;84;22224;-66
2022/10/13 10:26:05;;;;;;;17.12;5.45;;;;;;;13.79;92.73;101105.75;1692615;84;21001;-66
2022/10/13 10:29:02;;;;;;;18.65;5.25;;;;;;;13.83;92.17;101113.14;1708465;83;21065;-65
2022/10/13 10:32:06;;;;;;;17.92;5.60;;;;;;;13.82;92.38;101110.93;1718241;83;21037;-65
2022/10/13 10:34:46;;;;;;;23.18;5.78;;;;;;;13.82;92.73;101108.75;1718094;83;21057;-65
2022/10/13 10:37:20;;;;;;;19.65;6.00;;;;;;;13.77;92.62;101106.27;1718450;83;21149;-67
2022/10/13 10:40:04;;;;;;;17.95;6.03;;;;;;;13.74;92.99;101101.55;1718361;83;21014;-66
2022/10/13 10:43:02;;;;;;;16.30;5.40;;;;;;;13.72;93.86;101103.38;1718094;82;21041;-68
2022/10/13 10:45:38;;;;;;;15.70;5.67;;;;;;;13.72;93.59;101102.06;1737626;82;21049;-66
2022/10/13 10:48:19;;;;;;;23.83;6.25;;;;;;;13.79;93.23;101096.95;1748290;82;21068;-66
2022/10/13 10:50:46;;;;;;;13.58;5.37;;;;;;;13.77;93.47;101096.14;1748414;82;21573;-67
2022/10/13 10:53:21;;;;;;;18.02;6.47;;;;;;;13.72;93.53;101095.44;1748051;82;21522;-65
2022/10/13 10:55:59;;;;;;;15.68;6.30;;;;;;;13.74;93.87;101093.61;1747664;82;21073;-66
2022/10/13 10:59:03;;;;;;;17.92;6.97;;;;;;;13.74;93.82;101090.96;1748132;82;21552;-66
2022/10/13 11:01:42;;;;;;;19.42;6.37;;;;;;;13.77;93.61;101090.84;1748122;82;21061;-66
2022/10/13 11:04:48;;;;;;;19.60;6.58;;;;;;;13.75;93.53;101089.56;1748227;82;21137;-64
2022/10/13 11:07:26;;;;;;;15.08;6.20;;;;;;;13.71;93.87;101088.41;1748278;82;21040;-67
2022/10/13 11:12:58;;;;;;;21.33;7.50;;;;;;;13.52;94.77;101083.74;1796549;79;23099;-65
2022/10/13 11:15:40;;;;;;;24.35;6.87;;;;;;;13.43;95.95;101086.70;1756181;81;21038;-66
2022/10/13 11:18:57;;;;;;;19.42;6.70;;;;;;;13.46;95.44;101087.94;1756365;81;22143;-66
2022/10/13 11:21:26;;;;;;;18.77;6.92;;;;;;;13.48;95.90;101090.08;1756253;81;21112;-66
2022/10/13 11:23:53;;;;;;;26.00;7.58;;;;;;;13.50;96.27;101085.57;1671086;83;21053;-65
2022/10/13 11:26:30;;;;;;;15.15;6.05;;;;;;;13.48;96.27;101093.16;1722790;83;21084;-65
2022/10/13 11:28:58;;;;;;;16.75;6.62;;;;;;;13.47;96.48;101084.36;1722838;83;21021;-66
2022/10/13 11:31:32;;;;;;;15.83;6.87;;;;;;;13.46;96.87;101084.41;1722933;83;21048;-67
2022/10/13 11:34:00;;;;;;;17.42;6.67;;;;;;;13.46;96.86;101085.72;1720087;83;21529;-66
2022/10/13 11:36:36;;;;;;;17.27;6.65;;;;;;;13.45;96.54;101083.55;1720388;83;21021;-66
2022/10/13 11:39:27;;;;;;;18.20;6.22;;;;;;;13.46;96.82;101083.97;1696832;84;21086;-65
2022/10/13 11:42:26;;;;;;;12.82;6.00;;;;;;;13.47;97.18;101087.47;1697227;84;21089;-65